createdAt,value
2018-04-01T00:02:17.318Z,85.20
2018-04-01T00:04:44.443Z,84.70
2018-04-01T00:07:11.537Z,84.50
2018-04-01T00:09:38.639Z,83.40
2018-04-01T00:12:05.734Z,83.80
2018-04-01T00:14:32.848Z,84.10
2018-04-01T00:16:59.938Z,84.20
2018-04-01T00:19:27.036Z,83.70
2018-04-01T00:21:54.948Z,84.20
2018-04-01T00:24:22.028Z,84.20
2018-04-01T00:26:49.153Z,84.10
2018-04-01T00:29:16.248Z,84.90
2018-04-01T00:31:43.354Z,85.20
2018-04-01T00:34:11.204Z,84.20
2018-04-01T00:36:38.334Z,84.20
2018-04-01T00:39:05.428Z,85.10
2018-04-01T00:41:32.536Z,84.50
2018-04-01T00:43:59.635Z,83.60
2018-04-01T00:46:26.804Z,84.80
2018-04-01T00:48:53.905Z,85.60
2018-04-01T00:51:21.769Z,85.90
2018-04-01T00:53:48.892Z,85.90
2018-04-01T00:56:15.981Z,86.10
2018-04-01T00:58:43.085Z,85.70
2018-04-01T01:01:10.181Z,85.30
2018-04-01T01:03:37.299Z,85.80
2018-04-01T01:06:05.152Z,84.70
2018-04-01T01:08:32.275Z,84.70
2018-04-01T01:10:59.363Z,85.30
2018-04-01T01:13:26.475Z,86.00
2018-04-01T01:15:53.564Z,86.20
2018-04-01T01:18:20.648Z,85.30
2018-04-01T01:20:47.775Z,85.20
2018-04-01T01:23:14.860Z,85.30
2018-04-01T01:25:41.972Z,86.10
2018-04-01T01:28:09.829Z,85.80
2018-04-01T01:30:36.939Z,85.80
2018-04-01T01:33:04.029Z,85.70
2018-04-01T01:35:31.127Z,85.50
2018-04-01T01:37:58.228Z,86.50
2018-04-01T01:40:25.336Z,87.70
2018-04-01T01:42:52.429Z,87.90
2018-04-01T01:45:21.226Z,87.00
2018-04-01T01:47:48.325Z,87.00
2018-04-01T01:50:15.425Z,87.40
2018-04-01T01:52:42.536Z,87.40
2018-04-01T01:55:09.619Z,86.60
2018-04-01T01:57:36.729Z,86.40
2018-04-01T02:00:04.584Z,88.00
2018-04-01T02:02:31.694Z,88.00
2018-04-01T02:04:58.779Z,87.70
2018-04-01T02:07:25.896Z,88.80
2018-04-01T02:09:53.803Z,86.40
2018-04-01T02:12:21.657Z,87.30
2018-04-01T02:14:49.521Z,87.40
2018-04-01T02:17:17.380Z,88.60
2018-04-01T02:19:44.487Z,88.40
2018-04-01T02:22:11.582Z,87.70
2018-04-01T02:24:38.703Z,88.60
2018-04-01T02:27:06.561Z,88.40
2018-04-01T02:29:33.655Z,88.40
2018-04-01T02:32:00.747Z,88.90
2018-04-01T02:34:27.849Z,88.60
2018-04-01T02:36:55.708Z,88.00
2018-04-01T02:39:22.831Z,87.70
2018-04-01T02:41:49.924Z,88.00
2018-04-01T02:44:17.056Z,87.80
2018-04-01T02:46:44.152Z,89.80
2018-04-01T02:49:11.252Z,89.10
2018-04-01T02:51:38.365Z,88.90
2018-04-01T02:54:05.447Z,89.70
2018-04-01T02:56:32.562Z,91.30
2018-04-01T02:58:59.651Z,90.70
2018-04-01T03:01:26.777Z,91.40
2018-04-01T03:03:53.877Z,91.70
2018-04-01T03:06:20.984Z,91.00
2018-04-01T03:08:48.835Z,88.40
2018-04-01T03:11:15.959Z,88.50
2018-04-01T03:13:43.035Z,89.80
2018-04-01T03:16:10.136Z,90.30
2018-04-01T03:18:38.009Z,89.60
2018-04-01T03:21:05.130Z,89.60
2018-04-01T03:23:32.241Z,88.80
2018-04-01T03:26:00.106Z,89.60
2018-04-01T03:28:27.224Z,89.60
2018-04-01T03:30:54.315Z,88.90
2018-04-01T03:33:21.422Z,88.70
2018-04-01T03:35:48.508Z,89.70
2018-04-01T03:38:15.624Z,90.30
2018-04-01T03:40:42.713Z,91.50
2018-04-01T03:43:09.800Z,91.60
2018-04-01T03:45:36.913Z,91.30
2018-04-01T03:48:04.774Z,92.50
2018-04-01T03:50:31.885Z,92.50
2018-04-01T03:52:58.981Z,93.20
2018-04-01T03:55:26.089Z,92.40
2018-04-01T03:57:53.943Z,90.90
2018-04-01T04:00:21.049Z,90.90
2018-04-01T04:02:48.234Z,90.00
2018-04-01T04:05:15.345Z,90.70
2018-04-01T04:07:43.212Z,91.60
2018-04-01T04:10:10.325Z,91.60
2018-04-01T04:12:37.418Z,92.80
2018-04-01T04:15:04.532Z,92.20
2018-04-01T04:17:31.655Z,91.70
2018-04-01T04:19:58.729Z,92.20
2018-04-01T04:22:26.604Z,93.50
2018-04-01T04:24:54.469Z,93.50
2018-04-01T04:27:21.581Z,93.50
2018-04-01T04:29:48.666Z,93.50
2018-04-01T04:32:15.785Z,92.80
2018-04-01T04:34:42.883Z,91.90
2018-04-01T04:37:09.988Z,91.40
2018-04-01T04:39:37.071Z,91.20
2018-04-01T04:42:04.954Z,92.80
2018-04-01T04:44:32.057Z,92.80
2018-04-01T04:46:59.150Z,93.80
2018-04-01T04:49:26.262Z,94.20
2018-04-01T04:51:53.364Z,94.80
2018-04-01T04:54:20.471Z,93.70
2018-04-01T04:56:47.574Z,94.40
2018-04-01T04:59:14.684Z,93.90
2018-04-01T05:01:42.546Z,94.70
2018-04-01T05:04:10.415Z,94.30
2018-04-01T05:06:37.499Z,94.20
2018-04-01T05:09:05.392Z,90.50
2018-04-01T05:11:32.476Z,90.50
2018-04-01T05:13:59.568Z,88.60
2018-04-01T05:16:26.679Z,88.60
2018-04-01T05:18:53.761Z,88.40
2018-04-01T05:21:20.873Z,88.60
2018-04-01T05:23:47.956Z,87.10
2018-04-01T05:26:15.052Z,87.50
2018-04-01T05:28:42.149Z,88.50
2018-04-01T05:31:09.251Z,88.30
2018-04-01T05:33:36.332Z,86.80
2018-04-01T05:36:03.452Z,84.80
2018-04-01T05:38:31.314Z,84.20
2018-04-01T05:40:58.391Z,84.20
2018-04-01T05:43:26.259Z,85.80
2018-04-01T05:45:53.339Z,85.80
2018-04-01T05:48:20.457Z,85.10
2018-04-01T05:50:47.548Z,85.80
2018-04-01T05:53:15.419Z,85.70
2018-04-01T05:55:42.501Z,85.70
2018-04-01T05:58:10.387Z,85.90
2018-04-01T06:00:37.793Z,86.00
2018-04-01T06:03:04.912Z,85.50
2018-04-01T06:05:32.008Z,86.10
2018-04-01T06:07:59.124Z,86.40
2018-04-01T06:10:26.976Z,86.40
2018-04-01T06:12:54.075Z,86.40
2018-04-01T06:15:21.281Z,85.10
2018-04-01T06:17:48.372Z,85.20
2018-04-01T06:20:15.477Z,85.10
2018-04-01T06:22:42.569Z,85.50
2018-04-01T06:25:09.680Z,85.80
2018-04-01T06:27:37.537Z,84.90
2018-04-01T06:30:04.652Z,84.90
2018-04-01T06:32:31.745Z,85.60
2018-04-01T06:34:58.869Z,85.10
2018-04-01T06:37:25.960Z,84.70
2018-04-01T06:39:53.113Z,83.80
2018-04-01T06:42:20.191Z,84.70
2018-04-01T06:44:47.278Z,84.60
2018-04-01T06:47:15.160Z,84.60
2018-04-01T06:49:42.247Z,84.60
2018-04-01T06:52:09.356Z,85.20
2018-04-01T06:54:36.441Z,84.90
2018-04-01T06:57:03.570Z,85.80
2018-04-01T06:59:30.672Z,84.80
2018-04-01T07:01:58.548Z,84.50
2018-04-01T07:04:26.399Z,84.40
2018-04-01T07:06:53.532Z,84.20
2018-04-01T07:09:20.624Z,84.10
2018-04-01T07:11:47.711Z,85.30
2018-04-01T07:14:15.583Z,84.10
2018-04-01T07:16:42.677Z,84.10
2018-04-01T07:19:09.794Z,84.00
2018-04-01T07:21:36.884Z,83.60
2018-04-01T07:24:04.756Z,84.80
2018-04-01T07:26:31.841Z,84.80
2018-04-01T07:28:58.943Z,85.90
2018-04-01T07:31:26.024Z,86.80
2018-04-01T07:33:53.149Z,87.20
2018-04-01T07:36:20.279Z,86.80
2018-04-01T07:38:48.124Z,87.10
2018-04-01T07:41:15.228Z,87.00
2018-04-01T07:43:42.311Z,87.30
2018-04-01T07:46:09.420Z,87.40
2018-04-01T07:48:36.509Z,86.80
2018-04-01T07:51:03.628Z,86.00
2018-04-01T07:53:30.744Z,85.80
2018-04-01T07:55:57.854Z,87.10
2018-04-01T07:58:24.936Z,86.80
2018-04-01T08:00:52.806Z,85.50
2018-04-01T08:03:19.895Z,85.40
2018-04-01T08:05:46.987Z,85.90
2018-04-01T08:08:14.114Z,85.70
2018-04-01T08:10:41.967Z,84.60
2018-04-01T08:13:09.080Z,84.50
2018-04-01T08:15:36.170Z,86.10
2018-04-01T08:18:03.293Z,85.60
2018-04-01T08:20:30.416Z,85.30
2018-04-01T08:22:57.533Z,85.80
2018-04-01T08:25:24.623Z,87.10
2018-04-01T08:27:51.732Z,86.30
2018-04-01T08:30:18.811Z,85.00
2018-04-01T08:32:45.923Z,85.80
2018-04-01T08:35:13.013Z,86.30
2018-04-01T08:37:40.861Z,84.20
2018-04-01T08:40:08.002Z,84.20
2018-04-01T08:42:35.086Z,84.80
2018-04-01T08:45:02.217Z,84.70
2018-04-01T08:47:29.312Z,83.50
2018-04-01T08:49:56.421Z,82.80
2018-04-01T08:52:23.521Z,82.10
2018-04-01T08:54:50.636Z,82.50
2018-04-01T08:57:17.733Z,81.70
2018-04-01T08:59:44.846Z,81.20
2018-04-01T09:02:12.702Z,83.80
2018-04-01T09:04:39.789Z,83.80
2018-04-01T09:07:06.909Z,82.70
2018-04-01T09:09:33.993Z,83.50
2018-04-01T09:12:01.866Z,82.20
2018-04-01T09:14:28.960Z,82.20
2018-04-01T09:16:56.082Z,81.20
2018-04-01T09:19:23.173Z,81.10
2018-04-01T09:21:50.283Z,82.20
2018-04-01T09:24:17.367Z,80.70
2018-04-01T09:26:44.479Z,82.30
2018-04-01T09:29:11.573Z,82.00
2018-04-01T09:31:38.693Z,83.10
2018-04-01T09:34:05.788Z,84.00
2018-04-01T09:36:32.880Z,82.50
2018-04-01T09:38:59.983Z,82.10
2018-04-01T09:41:27.116Z,83.50
2018-04-01T09:43:54.190Z,79.90
2018-04-01T09:46:21.281Z,78.40
2018-04-01T09:48:48.402Z,78.50
2018-04-01T09:51:16.260Z,70.40
2018-04-01T09:53:43.375Z,70.40
2018-04-01T09:56:10.468Z,67.10
2018-04-01T09:58:37.575Z,66.30
2018-04-01T10:01:05.949Z,61.70
2018-04-01T10:03:33.543Z,61.70
2018-04-01T10:06:01.143Z,57.00
2018-04-01T10:08:28.726Z,56.80
2018-04-01T10:10:56.327Z,59.30
2018-04-01T10:13:23.903Z,59.50
2018-04-01T10:15:51.518Z,59.10
2018-04-01T10:18:19.104Z,57.40
2018-04-01T10:20:46.699Z,58.20
2018-04-01T10:23:14.284Z,58.80
2018-04-01T10:25:41.859Z,59.50
2018-04-01T10:28:09.459Z,57.40
2018-04-01T10:30:37.808Z,57.90
2018-04-01T10:33:05.418Z,57.70
2018-04-01T10:35:33.781Z,57.40
2018-04-01T10:38:01.401Z,57.30
2018-04-01T10:40:29.007Z,58.20
2018-04-01T10:42:56.614Z,56.70
2018-04-01T10:45:24.673Z,57.40
2018-04-01T10:47:52.256Z,57.50
2018-04-01T10:50:19.860Z,58.70
2018-04-01T10:52:48.204Z,58.30
2018-04-01T10:55:15.316Z,58.30
2018-04-01T10:57:43.179Z,58.10
2018-04-01T11:00:10.305Z,58.10
2018-04-01T11:02:37.392Z,57.90
2018-04-01T11:05:04.514Z,57.00
2018-04-01T11:07:31.611Z,58.10
2018-04-01T11:09:58.741Z,55.30
2018-04-01T11:12:25.825Z,56.20
2018-04-01T11:14:52.907Z,57.20
2018-04-01T11:17:21.528Z,59.20
2018-04-01T11:19:49.393Z,58.60
2018-04-01T11:22:16.506Z,58.60
2018-04-01T11:24:43.596Z,58.80
2018-04-01T11:27:10.708Z,56.90
2018-04-01T11:29:37.797Z,58.30
2018-04-01T11:32:04.912Z,57.30
2018-04-01T11:34:32.780Z,56.70
2018-04-01T11:36:59.900Z,56.70
2018-04-01T11:39:27.004Z,55.70
2018-04-01T11:41:54.876Z,52.50
2018-04-01T11:44:22.006Z,52.50
2018-04-01T11:46:49.092Z,53.70
2018-04-01T11:49:16.200Z,53.80
2018-04-01T11:51:43.302Z,52.20
2018-04-01T11:54:10.413Z,53.00
2018-04-01T11:56:38.332Z,53.40
2018-04-01T11:59:05.430Z,53.40
2018-04-01T12:01:32.515Z,53.40
2018-04-01T12:04:00.403Z,54.20
2018-04-01T12:06:27.766Z,54.20
2018-04-01T12:08:55.623Z,55.10
2018-04-01T12:11:23.571Z,54.00
2018-04-01T12:13:50.656Z,53.80
2018-04-01T12:16:17.763Z,50.30
2018-04-01T12:18:44.854Z,50.50
2018-04-01T12:21:11.956Z,49.20
2018-04-01T12:23:39.827Z,46.10
2018-04-01T12:26:06.936Z,45.20
2018-04-01T12:28:34.030Z,43.50
2018-04-01T12:31:01.139Z,44.10
2018-04-01T12:33:28.224Z,43.90
2018-04-01T12:35:55.337Z,44.60
2018-04-01T12:38:22.431Z,43.30
2018-04-01T12:40:49.537Z,43.80
2018-04-01T12:43:16.643Z,44.70
2018-04-01T12:45:44.507Z,45.70
2018-04-01T12:48:12.388Z,44.70
2018-04-01T12:50:40.246Z,45.40
2018-04-01T12:53:07.367Z,44.60
2018-04-01T12:55:34.550Z,44.10
2018-04-01T12:58:01.668Z,43.60
2018-04-01T13:00:29.535Z,42.60
2018-04-01T13:02:57.426Z,43.60
2018-04-01T13:05:24.536Z,43.60
2018-04-01T13:07:51.624Z,44.40
2018-04-01T13:10:19.713Z,44.10
2018-04-01T13:12:46.811Z,43.10
2018-04-01T13:15:13.920Z,44.40
2018-04-01T13:17:41.012Z,44.10
2018-04-01T13:20:08.876Z,43.10
2018-04-01T13:22:35.955Z,43.10
2018-04-01T13:25:03.852Z,44.40
2018-04-01T13:27:30.932Z,44.40
2018-04-01T13:29:58.036Z,43.80
2018-04-01T13:32:25.124Z,43.40
2018-04-01T13:34:53.018Z,44.00
2018-04-01T13:37:20.112Z,44.00
2018-04-01T13:39:47.199Z,44.10
2018-04-01T13:42:14.295Z,44.30
2018-04-01T13:44:41.376Z,45.00
2018-04-01T13:47:08.490Z,45.00
2018-04-01T13:49:35.589Z,46.10
2018-04-01T13:52:02.692Z,44.00
2018-04-01T13:54:29.781Z,43.60
2018-04-01T13:56:56.906Z,42.90
2018-04-01T13:59:23.992Z,41.40
2018-04-01T14:01:51.130Z,43.40
2018-04-01T14:04:18.241Z,43.80
2018-04-01T14:06:46.102Z,44.70
2018-04-01T14:09:13.983Z,44.80
2018-04-01T14:11:41.067Z,44.80
2018-04-01T14:14:08.946Z,43.00
2018-04-01T14:16:36.068Z,43.00
2018-04-01T14:19:03.183Z,44.20
2018-04-01T14:21:30.304Z,45.70
2018-04-01T14:23:57.411Z,46.70
2018-04-01T14:26:24.498Z,47.20
2018-04-01T14:28:51.604Z,46.00
2018-04-01T14:31:19.539Z,45.00
2018-04-01T14:33:46.649Z,44.80
2018-04-01T14:36:14.519Z,44.30
2018-04-01T14:38:41.629Z,44.10
2018-04-01T14:41:08.755Z,45.10
2018-04-01T14:43:35.840Z,46.20
2018-04-01T14:46:02.956Z,46.40
2018-04-01T14:48:30.046Z,45.90
2018-04-01T14:50:57.941Z,43.60
2018-04-01T14:53:25.034Z,44.20
2018-04-01T14:55:52.149Z,42.50
2018-04-01T14:58:19.244Z,41.80
2018-04-01T15:00:46.370Z,41.50
2018-04-01T15:03:14.237Z,40.20
2018-04-01T15:05:42.128Z,40.90
2018-04-01T15:08:09.245Z,40.80
2018-04-01T15:10:36.341Z,42.20
2018-04-01T15:13:03.453Z,41.90
2018-04-01T15:15:30.534Z,41.30
2018-04-01T15:17:57.644Z,39.50
2018-04-01T15:20:24.753Z,38.40
2018-04-01T15:22:51.860Z,38.30
2018-04-01T15:25:19.712Z,37.80
2018-04-01T15:27:46.953Z,37.90
2018-04-01T15:30:14.040Z,39.40
2018-04-01T15:32:41.133Z,40.30
2018-04-01T15:35:09.025Z,41.10
2018-04-01T15:37:36.176Z,41.10
2018-04-01T15:40:04.060Z,42.20
2018-04-01T15:42:31.179Z,42.00
2018-04-01T15:44:58.285Z,43.30
2018-04-01T15:47:25.385Z,42.90
2018-04-01T15:49:52.499Z,43.40
2018-04-01T15:52:20.416Z,44.00
2018-04-01T15:54:47.501Z,44.10
2018-04-01T15:57:14.597Z,45.00
2018-04-01T15:59:42.456Z,44.40
2018-04-01T16:02:09.594Z,44.40
2018-04-01T16:04:36.704Z,42.70
2018-04-01T16:07:04.585Z,43.70
2018-04-01T16:09:32.822Z,44.00
2018-04-01T16:11:59.983Z,44.00
2018-04-01T16:14:27.087Z,43.80
2018-04-01T16:16:54.250Z,45.30
2018-04-01T16:19:21.332Z,44.20
2018-04-01T16:21:48.437Z,45.40
2018-04-01T16:24:15.533Z,44.00
2018-04-01T16:26:43.420Z,45.80
2018-04-01T16:29:11.281Z,45.70
2018-04-01T16:31:38.367Z,45.70
2018-04-01T16:34:06.235Z,45.60
2018-04-01T16:36:34.098Z,46.20
2018-04-01T16:39:01.199Z,45.90
2018-04-01T16:41:28.295Z,46.30
2018-04-01T16:43:55.769Z,47.10
2018-04-01T16:46:22.900Z,47.60
2018-04-01T16:48:50.028Z,46.80
2018-04-01T16:51:17.880Z,48.60
2018-04-01T16:53:45.017Z,47.90
2018-04-01T16:56:12.108Z,48.10
2018-04-01T16:58:39.201Z,48.20
2018-04-01T17:01:07.071Z,48.40
2018-04-01T17:03:34.172Z,48.40
2018-04-01T17:06:01.284Z,50.30
2018-04-01T17:08:29.151Z,51.30
2018-04-01T17:10:56.266Z,51.30
2018-04-01T17:13:23.343Z,51.20
2018-04-01T17:15:51.051Z,50.00
2018-04-01T17:18:18.230Z,50.20
2018-04-01T17:20:45.348Z,50.60
2018-04-01T17:23:12.438Z,50.00
2018-04-01T17:25:39.531Z,50.20
2018-04-01T17:28:07.429Z,48.80
2018-04-01T17:30:34.528Z,48.80
2018-04-01T17:33:01.642Z,47.90
2018-04-01T17:35:29.514Z,48.00
2018-04-01T17:37:57.399Z,50.10
2018-04-01T17:40:24.510Z,50.00
2018-04-01T17:42:51.625Z,49.90
2018-04-01T17:45:19.496Z,51.70
2018-04-01T17:47:47.381Z,51.60
2018-04-01T17:50:15.239Z,52.60
2018-04-01T17:52:42.337Z,52.60
2018-04-01T17:55:09.485Z,53.40
2018-04-01T17:57:37.344Z,59.50
2018-04-01T18:00:04.458Z,59.50
2018-04-01T18:02:31.543Z,61.40
2018-04-01T18:04:58.647Z,64.10
2018-04-01T18:07:26.510Z,69.70
2018-04-01T18:09:53.633Z,69.70
2018-04-01T18:12:20.744Z,71.30
2018-04-01T18:14:48.121Z,74.40
2018-04-01T18:17:15.978Z,78.50
2018-04-01T18:19:43.067Z,78.70
2018-04-01T18:22:10.951Z,87.70
2018-04-01T18:24:38.821Z,89.40
2018-04-01T18:27:06.731Z,91.20
2018-04-01T18:29:33.827Z,91.20
2018-04-01T18:32:00.950Z,93.00
2018-04-01T18:34:28.055Z,94.00
2018-04-01T18:36:55.172Z,96.70
2018-04-01T18:39:22.278Z,99.60
2018-04-01T18:41:49.383Z,99.90
2018-04-01T18:44:17.236Z,99.90
2018-04-01T18:46:44.356Z,99.90
2018-04-01T18:49:11.448Z,99.90
2018-04-01T18:51:38.545Z,99.90
2018-04-01T18:54:06.433Z,99.90
2018-04-01T18:56:33.525Z,99.90
2018-04-01T18:59:00.642Z,99.90
2018-04-01T19:01:28.500Z,99.90
2018-04-01T19:03:55.607Z,99.90
2018-04-01T19:06:22.702Z,99.90
2018-04-01T19:08:49.876Z,99.90
2018-04-01T19:11:16.968Z,99.90
2018-04-01T19:13:44.839Z,99.90
2018-04-01T19:16:13.200Z,99.90
2018-04-01T19:18:40.800Z,99.90
2018-04-01T19:21:08.746Z,99.90
2018-04-01T19:23:36.360Z,99.90
2018-04-01T19:26:04.709Z,99.90
2018-04-01T19:28:32.292Z,99.90
2018-04-01T19:30:59.899Z,99.90
2018-04-01T19:33:28.245Z,99.90
2018-04-01T19:35:55.840Z,99.90
2018-04-01T19:38:23.422Z,99.90
2018-04-01T19:40:51.021Z,99.90
2018-04-01T19:43:19.384Z,99.90
2018-04-01T19:45:47.012Z,99.90
2018-04-01T19:48:14.603Z,99.90
2018-04-01T19:50:42.190Z,99.90
2018-04-01T19:53:09.798Z,99.90
2018-04-01T19:55:38.148Z,99.90
2018-04-01T19:58:05.753Z,99.90
2018-04-01T20:00:34.128Z,99.90
2018-04-01T20:03:01.723Z,99.90
2018-04-01T20:05:30.073Z,99.90
2018-04-01T20:07:57.680Z,99.90
2018-04-01T20:10:25.272Z,99.90
2018-04-01T20:12:52.864Z,99.90
2018-04-01T20:15:20.460Z,99.90
2018-04-01T20:17:48.039Z,99.90
2018-04-01T20:20:15.710Z,99.90
2018-04-01T20:22:43.297Z,99.90
2018-04-01T20:25:10.905Z,99.90
2018-04-01T20:27:39.263Z,99.90
2018-04-01T20:30:06.858Z,99.90
2018-04-01T20:32:34.467Z,99.90
2018-04-01T20:35:02.045Z,99.90
2018-04-01T20:37:29.644Z,99.90
2018-04-01T20:39:57.227Z,99.90
2018-04-01T20:42:25.196Z,99.90
2018-04-01T20:44:52.771Z,99.90
2018-04-01T20:47:20.367Z,99.90
2018-04-01T20:49:47.948Z,99.90
2018-04-01T20:52:15.539Z,99.90
2018-04-01T20:54:43.983Z,99.90
2018-04-01T20:57:11.541Z,99.90
2018-04-01T20:59:39.132Z,99.90
2018-04-01T21:02:06.711Z,99.90
2018-04-01T21:04:34.329Z,99.90
2018-04-01T21:07:02.677Z,99.90
2018-04-01T21:09:30.296Z,99.90
2018-04-01T21:11:57.883Z,99.90
2018-04-01T21:14:25.457Z,99.90
2018-04-01T21:16:53.053Z,99.90
2018-04-01T21:19:20.728Z,99.60
2018-04-01T21:21:48.350Z,98.60
2018-04-01T21:24:16.697Z,96.10
2018-04-01T21:26:44.309Z,96.10
2018-04-01T21:29:12.657Z,93.50
2018-04-01T21:31:40.260Z,93.50
2018-04-01T21:34:07.840Z,90.20
2018-04-01T21:36:35.432Z,87.50
2018-04-01T21:39:03.804Z,88.10
2018-04-01T21:41:31.375Z,88.00
2018-04-01T21:43:58.967Z,87.40
2018-04-01T21:46:27.313Z,86.00
2018-04-01T21:48:54.907Z,85.80
2018-04-01T21:51:22.480Z,85.50
2018-04-01T21:53:50.087Z,85.10
2018-04-01T21:56:17.668Z,86.30
2018-04-01T21:58:45.253Z,85.20
2018-04-01T22:01:12.843Z,86.40
2018-04-01T22:03:40.420Z,86.50
2018-04-01T22:06:08.016Z,86.90
2018-04-01T22:08:35.597Z,87.50
2018-04-01T22:11:03.200Z,87.10
2018-04-01T22:13:30.779Z,86.40
2018-04-01T22:15:58.388Z,85.40
2018-04-01T22:18:25.972Z,85.40
2018-04-01T22:20:53.557Z,85.70
2018-04-01T22:23:21.156Z,86.60
2018-04-01T22:25:49.498Z,83.70
2018-04-01T22:28:17.168Z,83.50
2018-04-01T22:30:44.746Z,85.70
2018-04-01T22:33:12.335Z,85.80
2018-04-01T22:35:39.992Z,85.10
2018-04-01T22:38:07.661Z,85.80
2018-04-01T22:40:35.227Z,83.60
2018-04-01T22:43:02.899Z,85.00
2018-04-01T22:45:30.492Z,84.60
2018-04-01T22:47:58.074Z,83.70
2018-04-01T22:50:25.675Z,84.80
2018-04-01T22:52:54.037Z,83.90
2018-04-01T22:55:21.626Z,83.80
2018-04-01T22:57:49.212Z,84.00
2018-04-01T23:00:17.592Z,83.90
2018-04-01T23:02:45.163Z,83.70
2018-04-01T23:05:12.744Z,83.30
2018-04-01T23:07:41.112Z,83.60
2018-04-01T23:10:08.688Z,83.10
2018-04-01T23:12:36.281Z,84.10
2018-04-01T23:15:03.864Z,83.90
2018-04-01T23:17:32.236Z,84.30
2018-04-01T23:19:59.800Z,84.30
2018-04-01T23:22:27.452Z,82.50
2018-04-01T23:24:55.028Z,84.30
2018-04-01T23:27:22.608Z,82.80
2018-04-01T23:29:50.208Z,83.30
2018-04-01T23:32:17.804Z,83.80
2018-04-01T23:34:45.407Z,82.10
2018-04-01T23:37:12.985Z,82.80
2018-04-01T23:39:40.667Z,83.50
2018-04-01T23:42:08.257Z,83.20
2018-04-01T23:44:35.853Z,83.30
2018-04-01T23:47:04.207Z,84.40
2018-04-01T23:49:31.819Z,84.00
2018-04-01T23:52:00.173Z,84.80
2018-04-01T23:54:27.758Z,84.60
2018-04-01T23:56:55.346Z,85.40
2018-04-01T23:59:22.927Z,84.80
